sensor_id;sensor_type;location;lat;lon;timestamp;pressure;altitude;pressure_sealevel;temperature;humidity
2681;BME280;1350;42.134;24.708;2022-07-15T00:02:17;99341.09;;;21.82;97.04
2681;BME280;1350;42.134;24.708;2022-07-15T00:04:44;99342.50;;;21.86;97.17
2681;BME280;1350;42.134;24.708;2022-07-15T00:07:11;99340.63;;;21.87;98.26
2681;BME280;1350;42.134;24.708;2022-07-15T00:09:38;99340.84;;;21.40;100.00
2681;BME280;1350;42.134;24.708;2022-07-15T00:12:24;99343.56;;;21.40;100.00
2681;BME280;1350;42.134;24.708;2022-07-15T00:14:50;99341.25;;;21.28;100.00
2681;BME280;1350;42.134;24.708;2022-07-15T00:17:17;99338.94;;;21.33;100.00
2681;BME280;1350;42.134;24.708;2022-07-15T00:19:44;99337.81;;;21.35;100.00
2681;BME280;1350;42.134;24.708;2022-07-15T00:22:11;99339.66;;;21.52;100.00
2681;BME280;1350;42.134;24.708;2022-07-15T00:24:38;99338.78;;;21.52;100.00
2681;BME280;1350;42.134;24.708;2022-07-15T00:27:05;99329.38;;;21.56;100.00
2681;BME280;1350;42.134;24.708;2022-07-15T00:29:33;99340.41;;;21.62;100.00
2681;BME280;1350;42.134;24.708;2022-07-15T00:32:00;99329.53;;;21.72;99.58
2681;BME280;1350;42.134;24.708;2022-07-15T00:34:26;99336.69;;;21.63;100.00
2681;BME280;1350;42.134;24.708;2022-07-15T00:36:53;99334.38;;;21.68;99.87
2681;BME280;1350;42.134;24.708;2022-07-15T00:39:20;99335.63;;;21.74;98.64
2681;BME280;1350;42.134;24.708;2022-07-15T00:41:47;99334.91;;;21.72;98.78
2681;BME280;1350;42.134;24.708;2022-07-15T00:44:14;99332.06;;;21.73;98.54
2681;BME280;1350;42.134;24.708;2022-07-15T00:46:42;99332.38;;;21.70;98.85
2681;BME280;1350;42.134;24.708;2022-07-15T00:49:10;99330.16;;;21.66;98.98
2681;BME280;1350;42.134;24.708;2022-07-15T00:51:39;99330.31;;;21.64;99.11
2681;BME280;1350;42.134;24.708;2022-07-15T00:54:07;99328.81;;;21.70;98.99
2681;BME280;1350;42.134;24.708;2022-07-15T00:56:37;99324.59;;;21.67;99.64
2681;BME280;1350;42.134;24.708;2022-07-15T00:59:05;99318.41;;;21.57;100.00
2681;BME280;1350;42.134;24.708;2022-07-15T01:01:33;99318.81;;;21.62;100.00
2681;BME280;1350;42.134;24.708;2022-07-15T01:04:03;99325.69;;;21.57;100.00
2681;BME280;1350;42.134;24.708;2022-07-15T01:06:31;99323.97;;;21.56;100.00
2681;BME280;1350;42.134;24.708;2022-07-15T01:08:58;99319.44;;;21.21;100.00
2681;BME280;1350;42.134;24.708;2022-07-15T01:11:26;99324.81;;;21.04;100.00
2681;BME280;1350;42.134;24.708;2022-07-15T01:13:56;99318.38;;;20.87;100.00
2681;BME280;1350;42.134;24.708;2022-07-15T01:16:23;99316.84;;;20.85;100.00
2681;BME280;1350;42.134;24.708;2022-07-15T01:18:49;99318.31;;;20.70;100.00
2681;BME280;1350;42.134;24.708;2022-07-15T01:21:18;99314.28;;;20.56;100.00
2681;BME280;1350;42.134;24.708;2022-07-15T01:23:45;99314.38;;;20.64;100.00
2681;BME280;1350;42.134;24.708;2022-07-15T01:26:12;99313.00;;;20.60;100.00
2681;BME280;1350;42.134;24.708;2022-07-15T01:28:39;99308.78;;;20.75;100.00
2681;BME280;1350;42.134;24.708;2022-07-15T01:31:06;99318.00;;;20.73;100.00
2681;BME280;1350;42.134;24.708;2022-07-15T01:33:34;99305.06;;;20.59;100.00
2681;BME280;1350;42.134;24.708;2022-07-15T01:36:01;99305.72;;;20.43;100.00
2681;BME280;1350;42.134;24.708;2022-07-15T01:38:29;99305.94;;;20.50;100.00
2681;BME280;1350;42.134;24.708;2022-07-15T01:40:56;99310.38;;;20.68;100.00
2681;BME280;1350;42.134;24.708;2022-07-15T01:43:23;99306.25;;;20.74;100.00
2681;BME280;1350;42.134;24.708;2022-07-15T01:45:50;99307.94;;;20.75;100.00
2681;BME280;1350;42.134;24.708;2022-07-15T01:48:17;99302.75;;;20.64;100.00
2681;BME280;1350;42.134;24.708;2022-07-15T01:51:01;99307.28;;;20.36;100.00
2681;BME280;1350;42.134;24.708;2022-07-15T01:53:30;99311.75;;;20.08;100.00
2681;BME280;1350;42.134;24.708;2022-07-15T01:55:56;99313.59;;;20.08;100.00
2681;BME280;1350;42.134;24.708;2022-07-15T01:58:23;99316.31;;;19.98;100.00
2681;BME280;1350;42.134;24.708;2022-07-15T02:00:50;99315.00;;;20.12;100.00
2681;BME280;1350;42.134;24.708;2022-07-15T02:03:16;99327.03;;;20.27;100.00
2681;BME280;1350;42.134;24.708;2022-07-15T02:05:43;99323.44;;;20.36;100.00
2681;BME280;1350;42.134;24.708;2022-07-15T02:08:10;99317.63;;;19.85;100.00
2681;BME280;1350;42.134;24.708;2022-07-15T02:10:38;99326.44;;;19.58;100.00
2681;BME280;1350;42.134;24.708;2022-07-15T02:13:08;99324.63;;;19.49;100.00
2681;BME280;1350;42.134;24.708;2022-07-15T02:15:35;99333.09;;;19.35;100.00
2681;BME280;1350;42.134;24.708;2022-07-15T02:18:02;99324.31;;;19.62;100.00
2681;BME280;1350;42.134;24.708;2022-07-15T02:20:29;99329.41;;;19.46;100.00
2681;BME280;1350;42.134;24.708;2022-07-15T02:22:56;99332.81;;;19.48;100.00
2681;BME280;1350;42.134;24.708;2022-07-15T02:25:23;99331.25;;;19.64;100.00
2681;BME280;1350;42.134;24.708;2022-07-15T02:27:54;99335.91;;;19.81;100.00
2681;BME280;1350;42.134;24.708;2022-07-15T02:30:24;99329.34;;;19.93;100.00
2681;BME280;1350;42.134;24.708;2022-07-15T02:32:51;99331.03;;;19.94;100.00
2681;BME280;1350;42.134;24.708;2022-07-15T02:35:18;99333.31;;;19.99;100.00
2681;BME280;1350;42.134;24.708;2022-07-15T02:37:45;99330.31;;;20.02;100.00
2681;BME280;1350;42.134;24.708;2022-07-15T02:40:12;99326.06;;;20.19;100.00
2681;BME280;1350;42.134;24.708;2022-07-15T02:42:43;99340.41;;;19.90;100.00
2681;BME280;1350;42.134;24.708;2022-07-15T02:45:14;99339.03;;;19.86;100.00
2681;BME280;1350;42.134;24.708;2022-07-15T02:47:41;99341.72;;;19.86;100.00
2681;BME280;1350;42.134;24.708;2022-07-15T02:50:08;99342.81;;;20.03;100.00
2681;BME280;1350;42.134;24.708;2022-07-15T02:52:35;99339.09;;;20.04;100.00
2681;BME280;1350;42.134;24.708;2022-07-15T02:55:01;99334.44;;;20.06;100.00
2681;BME280;1350;42.134;24.708;2022-07-15T02:57:29;99333.88;;;20.02;100.00
2681;BME280;1350;42.134;24.708;2022-07-15T02:59:55;99338.38;;;20.21;100.00
2681;BME280;1350;42.134;24.708;2022-07-15T03:02:23;99343.63;;;20.23;100.00
2681;BME280;1350;42.134;24.708;2022-07-15T03:04:50;99339.38;;;20.20;100.00
2681;BME280;1350;42.134;24.708;2022-07-15T03:07:17;99333.16;;;20.20;100.00
2681;BME280;1350;42.134;24.708;2022-07-15T03:09:44;99337.13;;;20.16;100.00
2681;BME280;1350;42.134;24.708;2022-07-15T03:12:10;99333.72;;;20.23;100.00
2681;BME280;1350;42.134;24.708;2022-07-15T03:14:37;99328.06;;;20.17;100.00
2681;BME280;1350;42.134;24.708;2022-07-15T03:17:06;99329.88;;;20.06;100.00
2681;BME280;1350;42.134;24.708;2022-07-15T03:19:35;99332.56;;;20.06;100.00
2681;BME280;1350;42.134;24.708;2022-07-15T03:22:02;99320.81;;;20.07;100.00
2681;BME280;1350;42.134;24.708;2022-07-15T03:24:28;99330.72;;;20.07;100.00
2681;BME280;1350;42.134;24.708;2022-07-15T03:26:55;99328.78;;;19.90;100.00
2681;BME280;1350;42.134;24.708;2022-07-15T03:29:22;99329.50;;;19.82;100.00
2681;BME280;1350;42.134;24.708;2022-07-15T03:31:49;99330.38;;;19.73;100.00
2681;BME280;1350;42.134;24.708;2022-07-15T03:34:16;99333.38;;;19.70;100.00
2681;BME280;1350;42.134;24.708;2022-07-15T03:36:44;99340.13;;;19.74;100.00
2681;BME280;1350;42.134;24.708;2022-07-15T03:39:11;99336.25;;;20.05;100.00
2681;BME280;1350;42.134;24.708;2022-07-15T03:41:38;99329.75;;;20.18;100.00
2681;BME280;1350;42.134;24.708;2022-07-15T03:44:05;99329.94;;;20.43;100.00
2681;BME280;1350;42.134;24.708;2022-07-15T03:46:32;99327.91;;;20.55;100.00
2681;BME280;1350;42.134;24.708;2022-07-15T03:49:00;99330.25;;;20.67;100.00
2681;BME280;1350;42.134;24.708;2022-07-15T03:51:27;99324.59;;;20.61;100.00
2681;BME280;1350;42.134;24.708;2022-07-15T03:53:57;99331.34;;;20.47;100.00
2681;BME280;1350;42.134;24.708;2022-07-15T03:56:24;99325.06;;;20.56;100.00
2681;BME280;1350;42.134;24.708;2022-07-15T03:58:51;99329.66;;;20.46;100.00
2681;BME280;1350;42.134;24.708;2022-07-15T04:01:18;99333.41;;;20.63;100.00
2681;BME280;1350;42.134;24.708;2022-07-15T04:03:46;99329.75;;;20.81;100.00
2681;BME280;1350;42.134;24.708;2022-07-15T04:06:13;99332.91;;;21.04;100.00
2681;BME280;1350;42.134;24.708;2022-07-15T04:08:40;99327.91;;;20.82;100.00
2681;BME280;1350;42.134;24.708;2022-07-15T04:11:09;99332.13;;;21.11;100.00
2681;BME280;1350;42.134;24.708;2022-07-15T04:13:37;99327.00;;;21.35;97.65
2681;BME280;1350;42.134;24.708;2022-07-15T04:16:04;99324.53;;;21.59;94.71
2681;BME280;1350;42.134;24.708;2022-07-15T04:18:31;99331.69;;;21.68;94.84
2681;BME280;1350;42.134;24.708;2022-07-15T04:20:57;99331.16;;;21.83;91.26
2681;BME280;1350;42.134;24.708;2022-07-15T04:23:24;99327.41;;;22.01;89.92
2681;BME280;1350;42.134;24.708;2022-07-15T04:25:52;99325.59;;;22.35;87.17
2681;BME280;1350;42.134;24.708;2022-07-15T04:28:21;99322.38;;;22.32;86.67
2681;BME280;1350;42.134;24.708;2022-07-15T04:30:48;99325.50;;;22.19;88.02
2681;BME280;1350;42.134;24.708;2022-07-15T04:33:16;99325.19;;;21.97;90.47
2681;BME280;1350;42.134;24.708;2022-07-15T04:35:44;99319.53;;;22.08;91.18
2681;BME280;1350;42.134;24.708;2022-07-15T04:38:11;99319.09;;;22.20;91.51
2681;BME280;1350;42.134;24.708;2022-07-15T04:40:38;99319.75;;;22.48;88.61
2681;BME280;1350;42.134;24.708;2022-07-15T04:43:06;99320.41;;;22.75;86.73
2681;BME280;1350;42.134;24.708;2022-07-15T04:45:35;99320.16;;;23.02;85.61
2681;BME280;1350;42.134;24.708;2022-07-15T04:48:01;99322.31;;;23.49;82.11
2681;BME280;1350;42.134;24.708;2022-07-15T04:50:48;99333.31;;;24.03;78.40
2681;BME280;1350;42.134;24.708;2022-07-15T04:53:17;99331.72;;;24.49;74.78
2681;BME280;1350;42.134;24.708;2022-07-15T04:55:44;99323.69;;;24.71;72.39
2681;BME280;1350;42.134;24.708;2022-07-15T04:58:11;99319.41;;;24.22;71.84
2681;BME280;1350;42.134;24.708;2022-07-15T05:00:41;99323.16;;;24.13;72.16
2681;BME280;1350;42.134;24.708;2022-07-15T05:03:08;99322.38;;;24.51;72.14
2681;BME280;1350;42.134;24.708;2022-07-15T05:05:35;99328.16;;;25.03;68.86
2681;BME280;1350;42.134;24.708;2022-07-15T05:08:02;99318.59;;;25.60;65.71
2681;BME280;1350;42.134;24.708;2022-07-15T05:10:29;99324.31;;;26.10;62.56
2681;BME280;1350;42.134;24.708;2022-07-15T05:12:56;99322.91;;;26.00;61.23
2681;BME280;1350;42.134;24.708;2022-07-15T05:15:23;99328.72;;;26.11;61.08
2681;BME280;1350;42.134;24.708;2022-07-15T05:17:51;99331.59;;;26.62;59.46
2681;BME280;1350;42.134;24.708;2022-07-15T05:20:18;99335.63;;;27.09;58.87
2681;BME280;1350;42.134;24.708;2022-07-15T05:22:45;99334.81;;;27.30;58.19
2681;BME280;1350;42.134;24.708;2022-07-15T05:25:11;99333.03;;;27.58;57.83
2681;BME280;1350;42.134;24.708;2022-07-15T05:27:38;99339.19;;;27.66;57.13
2681;BME280;1350;42.134;24.708;2022-07-15T05:30:06;99336.81;;;27.78;56.96
2681;BME280;1350;42.134;24.708;2022-07-15T05:32:34;99332.50;;;27.48;56.30
2681;BME280;1350;42.134;24.708;2022-07-15T05:35:03;99343.25;;;27.70;55.98
2681;BME280;1350;42.134;24.708;2022-07-15T05:37:30;99342.47;;;27.97;54.61
2681;BME280;1350;42.134;24.708;2022-07-15T05:39:56;99333.81;;;28.43;53.75
2681;BME280;1350;42.134;24.708;2022-07-15T05:42:24;99341.34;;;28.68;52.87
2681;BME280;1350;42.134;24.708;2022-07-15T05:44:51;99334.59;;;28.98;52.06
2681;BME280;1350;42.134;24.708;2022-07-15T05:47:17;99344.97;;;29.16;51.47
2681;BME280;1350;42.134;24.708;2022-07-15T05:49:44;99342.31;;;29.42;51.43
2681;BME280;1350;42.134;24.708;2022-07-15T05:52:12;99347.16;;;29.40;49.90
2681;BME280;1350;42.134;24.708;2022-07-15T05:54:39;99340.94;;;29.66;50.32
2681;BME280;1350;42.134;24.708;2022-07-15T05:57:06;99345.63;;;30.17;49.30
2681;BME280;1350;42.134;24.708;2022-07-15T05:59:32;99343.25;;;30.73;48.53
2681;BME280;1350;42.134;24.708;2022-07-15T06:01:59;99347.66;;;30.93;47.91
2681;BME280;1350;42.134;24.708;2022-07-15T06:04:26;99347.25;;;30.90;47.61
2681;BME280;1350;42.134;24.708;2022-07-15T06:06:53;99348.53;;;30.87;47.74
2681;BME280;1350;42.134;24.708;2022-07-15T06:09:21;99346.81;;;30.99;47.97
2681;BME280;1350;42.134;24.708;2022-07-15T06:11:48;99349.13;;;31.47;46.83
2681;BME280;1350;42.134;24.708;2022-07-15T06:14:15;99345.06;;;31.56;45.96
2681;BME280;1350;42.134;24.708;2022-07-15T06:16:42;99339.16;;;31.59;45.28
2681;BME280;1350;42.134;24.708;2022-07-15T06:19:09;99338.47;;;31.32;46.05
2681;BME280;1350;42.134;24.708;2022-07-15T06:21:36;99343.78;;;31.96;45.39
2681;BME280;1350;42.134;24.708;2022-07-15T06:24:03;99343.41;;;32.17;43.57
2681;BME280;1350;42.134;24.708;2022-07-15T06:26:31;99344.16;;;32.55;43.32
2681;BME280;1350;42.134;24.708;2022-07-15T06:28:58;99338.09;;;32.46;43.71
2681;BME280;1350;42.134;24.708;2022-07-15T06:31:25;99339.69;;;32.36;43.18
2681;BME280;1350;42.134;24.708;2022-07-15T06:33:51;99340.84;;;32.46;43.15
2681;BME280;1350;42.134;24.708;2022-07-15T06:36:18;99335.31;;;32.71;43.32
2681;BME280;1350;42.134;24.708;2022-07-15T06:38:45;99334.72;;;33.05;43.05
2681;BME280;1350;42.134;24.708;2022-07-15T06:41:15;99329.50;;;33.33;42.12
2681;BME280;1350;42.134;24.708;2022-07-15T06:43:43;99327.53;;;33.40;41.40
2681;BME280;1350;42.134;24.708;2022-07-15T06:46:11;99329.56;;;33.74;41.32
2681;BME280;1350;42.134;24.708;2022-07-15T06:48:38;99327.53;;;33.22;40.06
2681;BME280;1350;42.134;24.708;2022-07-15T06:51:05;99324.56;;;33.24;40.25
2681;BME280;1350;42.134;24.708;2022-07-15T06:53:32;99314.00;;;33.39;40.28
2681;BME280;1350;42.134;24.708;2022-07-15T06:55:59;99313.69;;;33.76;40.07
2681;BME280;1350;42.134;24.708;2022-07-15T06:58:26;99314.59;;;34.00;39.33
2681;BME280;1350;42.134;24.708;2022-07-15T07:00:54;99313.28;;;34.02;39.52
2681;BME280;1350;42.134;24.708;2022-07-15T07:03:20;99305.50;;;33.99;38.82
2681;BME280;1350;42.134;24.708;2022-07-15T07:05:47;99314.50;;;34.18;38.62
2681;BME280;1350;42.134;24.708;2022-07-15T07:08:14;99313.78;;;34.22;37.99
2681;BME280;1350;42.134;24.708;2022-07-15T07:10:41;99307.47;;;34.34;38.58
2681;BME280;1350;42.134;24.708;2022-07-15T07:13:08;99306.50;;;34.51;38.25
2681;BME280;1350;42.134;24.708;2022-07-15T07:15:35;99306.03;;;34.43;38.39
2681;BME280;1350;42.134;24.708;2022-07-15T07:18:03;99313.59;;;34.47;38.12
2681;BME280;1350;42.134;24.708;2022-07-15T07:20:29;99307.09;;;34.42;38.14
2681;BME280;1350;42.134;24.708;2022-07-15T07:22:56;99303.72;;;33.75;38.87
2681;BME280;1350;42.134;24.708;2022-07-15T07:25:23;99307.78;;;34.14;39.19
2681;BME280;1350;42.134;24.708;2022-07-15T07:27:50;99305.91;;;34.38;39.16
2681;BME280;1350;42.134;24.708;2022-07-15T07:30:17;99305.19;;;34.65;37.77
2681;BME280;1350;42.134;24.708;2022-07-15T07:32:44;99305.53;;;34.92;37.83
2681;BME280;1350;42.134;24.708;2022-07-15T07:35:18;99306.03;;;34.66;37.74
2681;BME280;1350;42.134;24.708;2022-07-15T07:37:46;99310.34;;;34.39;37.56
2681;BME280;1350;42.134;24.708;2022-07-15T07:40:18;99306.03;;;34.54;38.13
2681;BME280;1350;42.134;24.708;2022-07-15T07:42:49;99302.72;;;35.15;37.75
2681;BME280;1350;42.134;24.708;2022-07-15T07:45:16;99302.22;;;35.57;35.99
2681;BME280;1350;42.134;24.708;2022-07-15T07:47:45;99311.75;;;35.66;35.72
2681;BME280;1350;42.134;24.708;2022-07-15T07:50:16;99308.34;;;36.04;36.01
2681;BME280;1350;42.134;24.708;2022-07-15T07:52:43;99307.41;;;35.70;35.13
2681;BME280;1350;42.134;24.708;2022-07-15T07:55:10;99300.81;;;35.71;34.95
2681;BME280;1350;42.134;24.708;2022-07-15T07:57:46;99300.19;;;36.14;34.74
2681;BME280;1350;42.134;24.708;2022-07-15T08:00:14;99298.47;;;36.63;34.02
2681;BME280;1350;42.134;24.708;2022-07-15T08:02:41;99298.09;;;36.92;32.93
2681;BME280;1350;42.134;24.708;2022-07-15T08:05:08;99291.53;;;36.77;33.33
2681;BME280;1350;42.134;24.708;2022-07-15T08:07:37;99293.22;;;36.78;33.22
2681;BME280;1350;42.134;24.708;2022-07-15T08:10:05;99292.50;;;37.09;33.49
2681;BME280;1350;42.134;24.708;2022-07-15T08:12:32;99287.25;;;37.29;32.49
2681;BME280;1350;42.134;24.708;2022-07-15T08:14:59;99288.59;;;36.83;33.01
2681;BME280;1350;42.134;24.708;2022-07-15T08:17:26;99290.81;;;36.15;34.01
2681;BME280;1350;42.134;24.708;2022-07-15T08:19:52;99279.88;;;35.59;34.42
2681;BME280;1350;42.134;24.708;2022-07-15T08:22:19;99285.91;;;35.72;34.53
2681;BME280;1350;42.134;24.708;2022-07-15T08:24:48;99284.13;;;36.11;33.98
2681;BME280;1350;42.134;24.708;2022-07-15T08:27:15;99288.66;;;36.01;34.42
2681;BME280;1350;42.134;24.708;2022-07-15T08:29:41;99282.47;;;36.10;34.28
2681;BME280;1350;42.134;24.708;2022-07-15T08:32:08;99295.03;;;36.01;34.07
2681;BME280;1350;42.134;24.708;2022-07-15T08:34:35;99293.50;;;36.27;34.44
2681;BME280;1350;42.134;24.708;2022-07-15T08:37:02;99283.78;;;36.57;34.42
2681;BME280;1350;42.134;24.708;2022-07-15T08:39:29;99280.53;;;36.82;33.59
2681;BME280;1350;42.134;24.708;2022-07-15T08:41:57;99275.91;;;36.87;33.03
2681;BME280;1350;42.134;24.708;2022-07-15T08:44:24;99279.53;;;36.00;32.98
2681;BME280;1350;42.134;24.708;2022-07-15T08:46:52;99277.09;;;36.04;33.04
2681;BME280;1350;42.134;24.708;2022-07-15T08:49:22;99267.31;;;35.51;34.02
2681;BME280;1350;42.134;24.708;2022-07-15T08:51:51;99263.22;;;34.98;34.49
2681;BME280;1350;42.134;24.708;2022-07-15T08:54:18;99265.88;;;35.21;34.16
2681;BME280;1350;42.134;24.708;2022-07-15T08:56:45;99270.16;;;36.01;34.11
2681;BME280;1350;42.134;24.708;2022-07-15T08:59:13;99269.72;;;36.09;33.48
2681;BME280;1350;42.134;24.708;2022-07-15T09:01:42;99267.41;;;36.01;33.12
2681;BME280;1350;42.134;24.708;2022-07-15T09:04:09;99261.03;;;36.17;33.28
2681;BME280;1350;42.134;24.708;2022-07-15T09:06:37;99264.56;;;36.67;32.89
2681;BME280;1350;42.134;24.708;2022-07-15T09:09:31;99262.13;;;36.00;32.25
2681;BME280;1350;42.134;24.708;2022-07-15T09:12:02;99260.44;;;35.82;32.63
2681;BME280;1350;42.134;24.708;2022-07-15T09:14:32;99258.25;;;36.17;32.94
2681;BME280;1350;42.134;24.708;2022-07-15T09:17:19;99247.88;;;35.18;32.60
2681;BME280;1350;42.134;24.708;2022-07-15T09:20:01;99244.44;;;34.37;34.13
2681;BME280;1350;42.134;24.708;2022-07-15T09:22:31;99253.00;;;35.26;33.34
2681;BME280;1350;42.134;24.708;2022-07-15T09:25:03;99243.34;;;35.12;33.28
2681;BME280;1350;42.134;24.708;2022-07-15T09:27:35;99245.81;;;34.97;31.37
2681;BME280;1350;42.134;24.708;2022-07-15T09:30:19;99247.44;;;35.10;32.01
2681;BME280;1350;42.134;24.708;2022-07-15T09:33:05;99244.84;;;35.59;31.93
2681;BME280;1350;42.134;24.708;2022-07-15T09:35:50;99241.25;;;35.59;31.30
2681;BME280;1350;42.134;24.708;2022-07-15T09:38:31;99239.88;;;35.45;31.58
2681;BME280;1350;42.134;24.708;2022-07-15T09:40:58;99235.59;;;35.82;31.25
2681;BME280;1350;42.134;24.708;2022-07-15T09:43:25;99236.84;;;35.91;31.57
2681;BME280;1350;42.134;24.708;2022-07-15T09:45:57;99239.72;;;34.84;30.58
2681;BME280;1350;42.134;24.708;2022-07-15T09:48:25;99235.00;;;34.45;32.04
2681;BME280;1350;42.134;24.708;2022-07-15T09:50:58;99233.19;;;35.01;31.41
2681;BME280;1350;42.134;24.708;2022-07-15T09:53:26;99232.25;;;35.35;31.00
2681;BME280;1350;42.134;24.708;2022-07-15T09:55:53;99223.47;;;35.38;31.18
2681;BME280;1350;42.134;24.708;2022-07-15T09:58:20;99212.78;;;35.14;31.27
2681;BME280;1350;42.134;24.708;2022-07-15T10:00:48;99215.94;;;35.06;31.70
2681;BME280;1350;42.134;24.708;2022-07-15T10:03:18;99214.28;;;35.21;31.21
2681;BME280;1350;42.134;24.708;2022-07-15T10:05:51;99212.88;;;34.91;31.62
2681;BME280;1350;42.134;24.708;2022-07-15T10:08:19;99203.09;;;35.11;31.38
2681;BME280;1350;42.134;24.708;2022-07-15T10:10:46;99206.63;;;35.51;32.18
2681;BME280;1350;42.134;24.708;2022-07-15T10:13:25;99208.88;;;35.71;31.44
2681;BME280;1350;42.134;24.708;2022-07-15T10:16:10;99211.38;;;35.39;31.77
2681;BME280;1350;42.134;24.708;2022-07-15T10:18:52;99211.53;;;34.19;31.96
2681;BME280;1350;42.134;24.708;2022-07-15T10:21:32;99190.94;;;34.21;32.37
2681;BME280;1350;42.134;24.708;2022-07-15T10:24:26;99199.41;;;34.55;30.94
2681;BME280;1350;42.134;24.708;2022-07-15T10:27:09;99186.00;;;34.47;31.55
2681;BME280;1350;42.134;24.708;2022-07-15T10:29:39;99182.44;;;34.11;31.32
2681;BME280;1350;42.134;24.708;2022-07-15T10:32:06;99185.56;;;34.03;31.84
2681;BME280;1350;42.134;24.708;2022-07-15T10:34:35;99179.31;;;34.31;32.11
2681;BME280;1350;42.134;24.708;2022-07-15T10:37:06;99173.34;;;34.22;31.68
2681;BME280;1350;42.134;24.708;2022-07-15T10:39:50;99180.88;;;33.92;32.18
2681;BME280;1350;42.134;24.708;2022-07-15T10:42:18;99171.19;;;34.13;31.87
2681;BME280;1350;42.134;24.708;2022-07-15T10:45:03;99177.09;;;34.68;31.54
2681;BME280;1350;42.134;24.708;2022-07-15T10:47:31;99167.13;;;35.06;31.19
2681;BME280;1350;42.134;24.708;2022-07-15T10:49:59;99163.63;;;34.83;31.34
2681;BME280;1350;42.134;24.708;2022-07-15T10:52:27;99158.47;;;34.47;31.49
2681;BME280;1350;42.134;24.708;2022-07-15T10:55:02;99162.91;;;34.24;31.09
2681;BME280;1350;42.134;24.708;2022-07-15T10:57:51;99155.25;;;33.80;31.75
2681;BME280;1350;42.134;24.708;2022-07-15T11:00:28;99156.84;;;33.24;32.17
2681;BME280;1350;42.134;24.708;2022-07-15T11:03:03;99155.13;;;33.75;32.28
2681;BME280;1350;42.134;24.708;2022-07-15T11:05:32;99159.81;;;33.75;32.23
2681;BME280;1350;42.134;24.708;2022-07-15T11:07:59;99147.72;;;33.53;32.35
2681;BME280;1350;42.134;24.708;2022-07-15T11:10:26;99147.09;;;33.39;31.87
2681;BME280;1350;42.134;24.708;2022-07-15T11:13:04;99145.22;;;33.74;31.66
2681;BME280;1350;42.134;24.708;2022-07-15T11:15:31;99138.53;;;33.70;32.09
2681;BME280;1350;42.134;24.708;2022-07-15T11:17:59;99144.09;;;33.52;31.78
2681;BME280;1350;42.134;24.708;2022-07-15T11:20:33;99144.13;;;33.75;31.66
2681;BME280;1350;42.134;24.708;2022-07-15T11:23:02;99140.41;;;33.58;31.81
2681;BME280;1350;42.134;24.708;2022-07-15T11:25:33;99139.31;;;33.48;31.10
2681;BME280;1350;42.134;24.708;2022-07-15T11:28:05;99140.00;;;33.32;31.40
2681;BME280;1350;42.134;24.708;2022-07-15T11:30:35;99129.81;;;33.21;32.08
2681;BME280;1350;42.134;24.708;2022-07-15T11:33:04;99135.25;;;33.39;31.44
2681;BME280;1350;42.134;24.708;2022-07-15T11:35:42;99128.19;;;32.90;31.50
2681;BME280;1350;42.134;24.708;2022-07-15T11:38:09;99133.97;;;33.12;31.76
2681;BME280;1350;42.134;24.708;2022-07-15T11:40:42;99124.03;;;33.52;31.35
2681;BME280;1350;42.134;24.708;2022-07-15T11:43:26;99140.06;;;33.55;32.21
2681;BME280;1350;42.134;24.708;2022-07-15T11:46:11;99131.00;;;33.25;32.17
2681;BME280;1350;42.134;24.708;2022-07-15T11:48:39;99129.34;;;33.35;31.52
2681;BME280;1350;42.134;24.708;2022-07-15T11:51:09;99131.34;;;33.58;31.99
2681;BME280;1350;42.134;24.708;2022-07-15T11:53:37;99129.06;;;33.66;31.96
2681;BME280;1350;42.134;24.708;2022-07-15T11:56:05;99117.22;;;34.00;32.10
2681;BME280;1350;42.134;24.708;2022-07-15T11:58:34;99117.09;;;34.07;31.49
2681;BME280;1350;42.134;24.708;2022-07-15T12:01:03;99128.13;;;34.07;31.20
2681;BME280;1350;42.134;24.708;2022-07-15T12:03:32;99120.09;;;34.05;31.35
2681;BME280;1350;42.134;24.708;2022-07-15T12:06:01;99119.94;;;34.23;31.55
2681;BME280;1350;42.134;24.708;2022-07-15T12:08:38;99115.22;;;34.36;31.02
2681;BME280;1350;42.134;24.708;2022-07-15T12:11:10;99108.38;;;34.50;31.58
2681;BME280;1350;42.134;24.708;2022-07-15T12:13:42;99111.19;;;34.38;31.09
2681;BME280;1350;42.134;24.708;2022-07-15T12:16:11;99107.16;;;34.57;32.43
2681;BME280;1350;42.134;24.708;2022-07-15T12:18:38;99104.09;;;34.31;31.23
2681;BME280;1350;42.134;24.708;2022-07-15T12:21:05;99106.97;;;34.47;31.10
2681;BME280;1350;42.134;24.708;2022-07-15T12:23:33;99111.03;;;34.45;30.92
2681;BME280;1350;42.134;24.708;2022-07-15T12:26:09;99105.25;;;34.58;31.62
2681;BME280;1350;42.134;24.708;2022-07-15T12:28:36;99108.28;;;34.45;31.24
2681;BME280;1350;42.134;24.708;2022-07-15T12:31:04;99107.44;;;34.33;31.38
2681;BME280;1350;42.134;24.708;2022-07-15T12:33:34;99109.28;;;34.67;30.87
2681;BME280;1350;42.134;24.708;2022-07-15T12:36:16;99107.38;;;34.95;31.11
2681;BME280;1350;42.134;24.708;2022-07-15T12:38:44;99097.03;;;35.19;31.23
2681;BME280;1350;42.134;24.708;2022-07-15T12:41:24;99102.34;;;34.92;31.25
2681;BME280;1350;42.134;24.708;2022-07-15T12:43:53;99103.53;;;34.96;31.37
2681;BME280;1350;42.134;24.708;2022-07-15T12:46:21;99094.88;;;34.76;31.31
2681;BME280;1350;42.134;24.708;2022-07-15T12:49:07;99096.38;;;34.84;31.80
2681;BME280;1350;42.134;24.708;2022-07-15T12:51:34;99089.22;;;34.83;32.04
2681;BME280;1350;42.134;24.708;2022-07-15T12:54:04;99092.69;;;34.78;31.06
2681;BME280;1350;42.134;24.708;2022-07-15T12:56:49;99088.25;;;34.77;31.57
2681;BME280;1350;42.134;24.708;2022-07-15T12:59:16;99091.72;;;34.84;31.07
2681;BME280;1350;42.134;24.708;2022-07-15T13:01:43;99097.94;;;35.08;31.27
2681;BME280;1350;42.134;24.708;2022-07-15T13:04:11;99080.00;;;35.22;31.43
2681;BME280;1350;42.134;24.708;2022-07-15T13:06:38;99086.16;;;35.12;32.05
2681;BME280;1350;42.134;24.708;2022-07-15T13:09:05;99087.34;;;35.33;31.69
2681;BME280;1350;42.134;24.708;2022-07-15T13:11:33;99086.22;;;35.45;31.96
2681;BME280;1350;42.134;24.708;2022-07-15T13:14:00;99082.69;;;35.33;31.68
2681;BME280;1350;42.134;24.708;2022-07-15T13:16:28;99086.50;;;35.32;31.07
2681;BME280;1350;42.134;24.708;2022-07-15T13:18:55;99083.03;;;35.37;31.54